TimeAKDT,TemperatureF,Dew PointF,Humidity,Sea Level PressureIn,VisibilityMPH,Wind Direction,Wind SpeedMPH,Gust SpeedMPH,PrecipitationIn,Events,Conditions,WindDirDegrees,DateUTC
12:41 AM,44.6,44.6,100,30.13,8.0,Calm,Calm,-,N/A,Rain,Light Rain,0,2012-10-06 08:41:00
12:55 AM,45.3,45.1,99,30.13,7.0,Calm,Calm,-,0.02,Rain,Light Rain,0,2012-10-06 08:55:00
1:18 AM,44.6,44.6,100,30.14,5.0,Calm,Calm,-,N/A,Rain,Light Rain,0,2012-10-06 09:18:00
1:20 AM,44.6,44.6,100,30.14,5.0,Calm,Calm,-,N/A,Rain,Light Rain,0,2012-10-06 09:20:00
1:45 AM,44.6,44.6,100,30.14,7.0,Calm,Calm,-,N/A,Rain,Light Rain,0,2012-10-06 09:45:00
1:49 AM,44.6,44.6,100,30.14,7.0,Calm,Calm,-,N/A,Rain,Rain,0,2012-10-06 09:49:00
1:55 AM,45.3,45.1,99,30.14,7.0,Calm,Calm,-,0.06,Rain,Light Rain,0,2012-10-06 09:55:00
1:58 AM,44.6,44.6,100,30.14,7.0,Calm,Calm,-,N/A,Rain,Light Rain,0,2012-10-06 09:58:00
2:15 AM,44.6,44.6,100,30.14,7.0,Calm,Calm,-,N/A,Rain,Rain,0,2012-10-06 10:15:00
2:16 AM,44.6,44.6,100,30.14,7.0,Calm,Calm,-,N/A,Rain,Rain,0,2012-10-06 10:16:00
2:24 AM,46.4,46.4,100,30.14,7.0,Calm,Calm,-,N/A,Rain,Light Rain,0,2012-10-06 10:24:00
2:25 AM,46.4,46.4,100,30.14,7.0,Variable,4.6,-,N/A,Rain,Light Rain,0,2012-10-06 10:25:00
2:53 AM,46.4,46.4,100,30.14,7.0,SSW,8.1,-,N/A,Rain,Rain,200,2012-10-06 10:53:00
2:54 AM,46.4,46.4,100,30.14,7.0,South,6.9,-,N/A,Rain,Rain,190,2012-10-06 10:54:00
2:55 AM,47.3,46.4,97,30.14,7.0,South,5.8,-,0.12,Rain,Rain,180,2012-10-06 10:55:00
3:02 AM,46.4,46.4,100,30.14,7.0,South,8.1,-,N/A,Rain,Light Rain,180,2012-10-06 11:02:00
3:08 AM,46.4,46.4,100,30.14,9.0,South,8.1,-,N/A,Rain,Light Rain,180,2012-10-06 11:08:00
3:15 AM,46.4,46.4,100,30.14,7.0,South,6.9,-,N/A,Rain,Rain,170,2012-10-06 11:15:00
3:50 AM,46.4,46.4,100,30.14,7.0,South,4.6,-,N/A,Rain,Light Rain,170,2012-10-06 11:50:00
3:55 AM,46.4,46.2,99,30.14,9.0,South,8.1,-,0.10,Rain,Light Rain,170,2012-10-06 11:55:00
4:55 AM,46.9,45.9,96,30.15,10.0,SSW,6.9,-,0.07,Rain,Light Rain,200,2012-10-06 12:55:00
5:55 AM,46.2,45.3,97,30.14,10.0,SSE,3.5,-,0.05,Rain,Light Rain,160,2012-10-06 13:55:00
6:55 AM,46.8,43.5,88,30.15,10.0,SSW,9.2,-,0.00,,Light Drizzle,200,2012-10-06 14:55:00
7:15 AM,46.4,44.6,93,30.16,10.0,SW,8.1,-,N/A,,Light Drizzle,220,2012-10-06 15:15:00
7:18 AM,46.4,44.6,93,30.16,10.0,SSW,6.9,-,N/A,,Overcast,210,2012-10-06 15:18:00
7:40 AM,46.4,44.6,93,30.16,10.0,SSW,9.2,-,N/A,,Light Drizzle,210,2012-10-06 15:40:00
7:55 AM,46.4,44.2,92,30.17,10.0,SSW,9.2,-,0.01,Rain,Light Rain,200,2012-10-06 15:55:00
8:10 AM,46.4,44.6,93,30.17,10.0,South,10.4,-,N/A,,Light Drizzle,190,2012-10-06 16:10:00
8:12 AM,46.4,44.6,93,30.17,10.0,South,10.4,-,N/A,,Overcast,190,2012-10-06 16:12:00
8:14 AM,46.4,44.6,93,30.17,10.0,South,10.4,-,N/A,,Overcast,190,2012-10-06 16:14:00
8:31 AM,46.4,44.6,93,30.18,10.0,South,11.5,-,N/A,,Light Drizzle,190,2012-10-06 16:31:00
8:32 AM,46.4,44.6,93,30.18,10.0,South,11.5,-,N/A,,Light Drizzle,190,2012-10-06 16:32:00
8:52 AM,46.4,44.6,93,30.18,10.0,SSW,9.2,-,N/A,,Overcast,210,2012-10-06 16:52:00
8:55 AM,45.9,44.1,93,30.18,10.0,SW,10.4,-,0.00,,Overcast,220,2012-10-06 16:55:00
9:50 AM,46.4,44.6,93,30.19,10.0,South,10.4,-,N/A,,Overcast,190,2012-10-06 17:50:00
9:55 AM,46.2,44.4,93,30.19,10.0,SSW,10.4,-,N/A,,Overcast,200,2012-10-06 17:55:00
10:52 AM,46.4,44.6,93,30.22,10.0,SSW,6.9,-,N/A,,Overcast,210,2012-10-06 18:52:00
10:55 AM,46.6,44.1,91,30.22,10.0,SSW,8.1,-,N/A,,Overcast,210,2012-10-06 18:55:00
11:55 AM,47.7,43.2,84,30.25,10.0,SSW,5.8,-,N/A,,Overcast,210,2012-10-06 19:55:00
12:55 PM,47.8,42.8,83,30.26,10.0,West,3.5,-,N/A,,Overcast,260,2012-10-06 20:55:00
12:58 PM,48.2,42.8,82,30.27,10.0,West,3.5,-,N/A,,Overcast,270,2012-10-06 20:58:00
1:12 PM,48.2,42.8,82,30.27,10.0,Calm,Calm,-,N/A,,Overcast,0,2012-10-06 21:12:00
1:55 PM,48.0,42.6,82,30.27,10.0,West,3.5,-,N/A,,Overcast,280,2012-10-06 21:55:00
2:55 PM,49.6,43.7,80,30.27,9.0,NE,3.5,-,N/A,,Overcast,40,2012-10-06 22:55:00
3:17 PM,50.0,44.6,82,30.27,10.0,NE,4.6,-,N/A,,Overcast,50,2012-10-06 23:17:00
3:55 PM,49.3,44.2,83,30.27,10.0,NNE,5.8,-,N/A,,Overcast,30,2012-10-06 23:55:00
4:12 PM,50.0,44.6,82,30.27,10.0,ENE,6.9,-,N/A,,Overcast,70,2012-10-07 00:12:00
4:25 PM,50.0,44.6,82,30.28,10.0,NE,5.8,-,N/A,,Overcast,50,2012-10-07 00:25:00
4:55 PM,49.1,44.6,84,30.27,10.0,NE,5.8,-,N/A,,Overcast,50,2012-10-07 00:55:00
5:55 PM,48.7,44.2,84,30.27,10.0,NE,5.8,-,N/A,,Overcast,40,2012-10-07 01:55:00
6:55 PM,48.0,43.5,84,30.27,10.0,ENE,6.9,-,N/A,,Overcast,60,2012-10-07 02:55:00
7:55 PM,46.9,42.3,84,30.28,10.0,NE,4.6,-,N/A,,Overcast,50,2012-10-07 03:55:00
8:22 PM,46.4,42.8,87,30.27,10.0,ENE,6.9,-,N/A,,Scattered Clouds,70,2012-10-07 04:22:00
8:55 PM,45.7,42.3,88,30.27,10.0,NE,6.9,-,N/A,,Clear,40,2012-10-07 04:55:00
9:55 PM,45.3,41.4,86,30.28,10.0,NE,3.5,-,N/A,,Clear,40,2012-10-07 05:55:00
10:55 PM,44.2,41.2,89,30.30,10.0,Calm,Calm,-,N/A,,Clear,0,2012-10-07 06:55:00
11:55 PM,43.7,41.9,93,30.30,10.0,Calm,Calm,-,N/A,,Overcast,0,2012-10-07 07:55:00